Time;durP1;ratioP1;P1;durP2;ratioP2;P2;SDS_P1;SDS_P2;PMS_P1;PMS_P2;Temp;Humidity;BMP_temperature;BMP_pressure;BME280_temperature;BME280_humidity;BME280_pressure;Samples;Min_cycle;Max_cycle;Signal;HPM_P1;HPM_P2
2022/01/03 00:02:35;;;;;;;424.88;31.30;;;4.40;99.90;;;;;;5030305;28;20018;-80
2022/01/03 00:06:08;;;;;;;86.47;30.30;;;4.30;99.90;;;;;;4940430;29;20040;-81
2022/01/03 00:09:35;;;;;;;540.65;55.67;;;4.30;99.90;;;;;;4904742;29;20084;-80
2022/01/03 00:19:24;;;;;;;301.15;22.88;;;4.20;99.90;;;;;;4876421;29;20036;-80
2022/01/03 00:50:18;;;;;;;57.85;28.45;;;3.70;99.90;;;;;;6061942;23;20029;-77
2022/01/03 00:52:45;;;;;;;64.95;29.08;;;3.60;99.90;;;;;;5010731;28;20410;-78
2022/01/03 00:55:12;;;;;;;44.58;24.98;;;3.60;99.90;;;;;;5043939;28;20033;-79
2022/01/03 00:57:59;;;;;;;49.67;26.33;;;3.60;99.90;;;;;;5024511;28;20065;-78
2022/01/03 01:00:27;;;;;;;44.50;23.80;;;3.60;99.90;;;;;;5024202;28;20033;-77
2022/01/03 01:03:12;;;;;;;45.90;23.55;;;3.50;99.90;;;;;;5024706;28;20053;-78
2022/01/03 01:05:46;;;;;;;41.05;21.73;;;3.50;99.90;;;;;;5023531;28;20515;-78
2022/01/03 01:08:16;;;;;;;34.13;21.00;;;3.40;99.90;;;;;;5059155;28;20037;-79
2022/01/03 01:10:44;;;;;;;38.45;21.58;;;3.50;99.90;;;;;;5060787;28;20029;-79
2022/01/03 01:13:12;;;;;;;40.58;23.05;;;3.50;99.90;;;;;;5059471;28;20035;-79
2022/01/03 01:15:38;;;;;;;48.88;25.17;;;3.50;99.90;;;;;;5044912;28;20052;-79
2022/01/03 01:18:05;;;;;;;49.50;25.10;;;3.60;99.90;;;;;;5043826;28;20048;-79
2022/01/03 01:20:31;;;;;;;;;;;3.60;99.90;;;;;;5045227;28;20037;-79
2022/01/03 01:23:09;;;;;;;;;;;3.70;99.90;;;;;;5064885;28;19977;-81
2022/01/03 01:32:33;;;;;;;59.03;30.60;;;3.60;99.90;;;;;;5021750;28;20042;-80
2022/01/03 01:35:38;;;;;;;68.35;34.00;;;3.40;99.90;;;;;;5021462;28;20022;-79
2022/01/03 01:39:15;;;;;;;80.85;41.67;;;3.40;99.90;;;;;;5020041;28;20053;-79
2022/01/03 01:42:26;;;;;;;62.88;35.67;;;3.40;99.90;;;;;;4995979;28;20042;-80
2022/01/03 01:45:54;;;;;;;63.03;33.75;;;3.40;99.90;;;;;;4941472;29;20091;-80
2022/01/03 01:49:41;;;;;;;72.53;32.70;;;3.30;99.90;;;;;;4886238;29;20035;-79
2022/01/03 01:52:18;;;;;;;49.80;22.60;;;3.30;99.90;;;;;;4809320;29;20067;-78
2022/01/03 01:55:33;;;;;;;63.63;21.10;;;3.10;99.90;;;;;;4795917;29;20086;-79
2022/01/03 01:58:22;;;;;;;103.35;21.98;;;3.00;99.90;;;;;;4861201;29;20049;-79
2022/01/03 02:01:47;;;;;;;115.57;21.75;;;3.00;99.90;;;;;;4924896;29;20096;-79
2022/01/03 02:14:25;;;;;;;36.70;20.80;;;2.70;99.90;;;;;;4960925;28;20043;-79
2022/01/03 02:17:36;;;;;;;39.58;21.25;;;2.60;99.90;;;;;;5016794;28;20035;-79
2022/01/03 02:28:56;;;;;;;40.50;22.20;;;2.70;99.90;;;;;;6128624;23;20016;-79
2022/01/03 02:31:28;;;;;;;41.95;21.73;;;2.70;99.90;;;;;;5038271;28;20018;-79
2022/01/03 02:34:03;;;;;;;41.83;23.35;;;2.70;99.90;;;;;;5037820;28;20010;-79
2022/01/03 02:44:17;;;;;;;44.42;23.95;;;2.80;99.90;;;;;;4923821;29;20076;-79
2022/01/03 02:51:24;;;;;;;36.20;19.23;;;3.00;99.90;;;;;;4904802;29;20067;-80
2022/01/03 03:19:48;;;;;;;29.50;18.38;;;3.80;99.90;;;;;;4758456;30;20060;-80
2022/01/03 04:19:28;;;;;;;7.15;1.95;;;7.10;99.90;;;;;;4958017;28;20035;-78
2022/01/03 04:22:31;;;;;;;7.93;1.38;;;8.00;99.90;;;;;;4958242;29;20015;-80
2022/01/03 04:25:06;;;;;;;4.05;1.40;;;8.60;99.90;;;;;;4955017;29;20063;-80
2022/01/03 04:35:29;;;;;;;3.30;1.00;;;10.30;99.90;;;;;;4875615;29;20048;-80
2022/01/03 13:34:36;;;;;;;4.47;0.80;;;11.00;99.90;;;;;;4999316;28;20037;-80
2022/01/03 13:42:00;;;;;;;1.48;0.40;;;11.00;99.90;;;;;;4924095;29;20048;-79
2022/01/03 13:58:20;;;;;;;2.90;0.35;;;10.70;99.90;;;;;;4901532;29;20031;-80
2022/01/03 14:01:05;;;;;;;2.35;0.32;;;10.60;99.90;;;;;;4938245;28;20029;-81
2022/01/03 14:03:35;;;;;;;2.28;0.38;;;10.60;99.90;;;;;;5002388;28;20042;-81
2022/01/03 14:06:21;;;;;;;1.83;0.30;;;10.50;99.90;;;;;;4963466;28;20022;-80
2022/01/03 14:08:52;;;;;;;2.25;0.25;;;10.40;99.90;;;;;;5001163;28;20078;-80
2022/01/03 14:11:23;;;;;;;1.60;0.20;;;10.40;99.90;;;;;;5000765;28;20050;-79
2022/01/03 14:13:50;;;;;;;3.65;0.40;;;10.50;99.90;;;;;;4968195;28;20069;-80
2022/01/03 14:16:19;;;;;;;2.63;0.32;;;10.40;99.90;;;;;;5001575;28;20018;-80
2022/01/03 14:18:53;;;;;;;5.38;0.40;;;10.30;99.90;;;;;;4969190;28;20019;-79
2022/01/03 14:21:36;;;;;;;1.20;0.45;;;10.40;99.90;;;;;;4985395;28;20031;-80
2022/01/03 14:24:13;;;;;;;1.95;0.40;;;10.30;99.90;;;;;;4985410;28;20054;-80
2022/01/03 14:26:41;;;;;;;5.03;0.40;;;10.40;99.90;;;;;;4969519;28;20046;-80
2022/01/03 14:29:16;;;;;;;1.98;0.40;;;10.50;99.90;;;;;;4985395;28;20050;-79
2022/01/03 14:31:56;;;;;;;2.75;0.32;;;10.50;99.90;;;;;;4984976;28;20073;-80
2022/01/03 14:34:34;;;;;;;4.57;0.30;;;10.50;99.90;;;;;;4994353;28;20064;-80
2022/01/03 14:37:02;;;;;;;2.97;0.40;;;10.40;99.90;;;;;;4985045;28;20038;-79
2022/01/03 14:39:30;;;;;;;2.47;0.40;;;10.40;99.90;;;;;;4979718;28;20030;-79
2022/01/03 14:42:42;;;;;;;1.48;0.30;;;10.30;99.90;;;;;;4992633;28;20031;-79
2022/01/03 14:45:58;;;;;;;0.82;0.30;;;10.40;99.90;;;;;;4969420;28;20035;-79
2022/01/03 14:48:29;;;;;;;5.57;0.60;;;10.30;99.90;;;;;;4980990;28;20070;-80
2022/01/03 14:51:16;;;;;;;1.10;0.20;;;10.20;99.90;;;;;;4983968;28;20018;-79
2022/01/03 14:53:45;;;;;;;0.90;0.40;;;10.20;99.90;;;;;;5000151;28;20030;-79
2022/01/03 14:56:29;;;;;;;1.80;0.40;;;10.20;99.90;;;;;;4945767;28;20045;-79
2022/01/03 14:59:33;;;;;;;1.70;0.38;;;10.10;99.90;;;;;;4983449;28;20022;-79
2022/01/03 15:01:59;;;;;;;2.55;0.40;;;10.00;99.90;;;;;;4872149;29;20040;-79
2022/01/03 15:04:29;;;;;;;;;;;10.00;99.90;;;;;;4963042;28;20046;-79
2022/01/03 15:07:17;;;;;;;1.35;0.40;;;10.00;99.90;;;;;;4982264;28;19914;-79
2022/01/03 15:09:46;;;;;;;1.88;0.50;;;9.90;99.90;;;;;;4993286;28;20058;-79
2022/01/03 15:12:15;;;;;;;2.88;0.30;;;9.80;99.90;;;;;;4963078;28;20039;-79
2022/01/03 15:14:42;;;;;;;1.92;0.30;;;9.90;99.90;;;;;;4982393;28;20010;-79
2022/01/03 15:17:12;;;;;;;1.33;0.30;;;9.80;99.90;;;;;;4982907;28;20103;-79
2022/01/03 15:19:40;;;;;;;6.00;0.93;;;9.70;99.90;;;;;;4998381;28;20042;-79
2022/01/03 15:22:06;;;;;;;12.68;5.45;;;9.70;99.90;;;;;;4967033;28;20078;-79
2022/01/03 15:24:31;;;;;;;;;;;9.70;99.90;;;;;;4951233;28;20011;-79
2022/01/03 15:26:59;;;;;;;27.83;11.82;;;9.70;99.90;;;;;;4979647;28;19953;-80
2022/01/03 15:29:28;;;;;;;4.95;0.85;;;9.70;99.90;;;;;;4982703;28;20038;-79
2022/01/03 15:31:54;;;;;;;1.73;0.40;;;9.70;99.90;;;;;;4999137;28;20039;-79
2022/01/03 15:34:19;;;;;;;;;;;9.60;99.90;;;;;;4982847;28;20121;-80
2022/01/03 15:36:45;;;;;;;2.63;0.40;;;9.60;99.90;;;;;;4965989;28;19895;-79
2022/01/03 15:39:11;;;;;;;;;;;9.50;99.90;;;;;;4980628;28;20034;-79
2022/01/03 15:41:37;;;;;;;1.30;0.50;;;9.60;99.90;;;;;;4981366;28;19910;-80
2022/01/03 15:44:03;;;;;;;;;;;9.50;99.90;;;;;;4956472;28;20039;-79
2022/01/03 15:46:29;;;;;;;4.00;0.63;;;9.50;99.90;;;;;;4982746;28;19947;-80
2022/01/03 15:48:56;;;;;;;;;;;9.40;99.90;;;;;;4981720;28;20035;-79
2022/01/03 15:51:41;;;;;;;2.60;0.50;;;9.40;99.90;;;;;;4982246;28;19902;-79
2022/01/03 15:54:46;;;;;;;7.28;2.20;;;9.30;99.90;;;;;;4966073;28;20066;-80
2022/01/03 15:58:15;;;;;;;3.90;0.38;;;9.40;99.90;;;;;;4921825;29;20038;-79
2022/01/03 16:01:06;;;;;;;4.07;0.40;;;9.40;99.90;;;;;;4892864;29;20021;-79
2022/01/03 16:03:56;;;;;;;4.55;0.43;;;9.40;99.90;;;;;;4886865;29;20057;-80
2022/01/03 16:40:57;;;;;;;3.63;0.50;;;9.10;99.90;;;;;;5518762;23;20046;-80
2022/01/03 16:46:39;;;;;;;1.27;0.35;;;9.00;99.90;;;;;;4960372;29;20091;-80
2022/01/03 16:49:31;;;;;;;1.75;0.63;;;8.90;99.90;;;;;;4940902;29;20024;-80
2022/01/03 16:52:47;;;;;;;1.90;0.40;;;8.90;99.90;;;;;;4941298;29;20120;-80
2022/01/03 16:55:38;;;;;;;28.70;10.45;;;8.90;99.90;;;;;;4931253;29;20092;-79
2022/01/03 17:05:04;;;;;;;3.33;1.30;;;8.90;99.90;;;;;;4790892;29;20119;-81
2022/01/03 17:07:30;;;;;;;;;;;8.90;99.90;;;;;;4793747;29;20052;-79
2022/01/03 17:10:03;;;;;;;13.88;2.40;;;8.90;99.90;;;;;;4791238;29;19905;-78
2022/01/03 17:12:38;;;;;;;5.20;2.15;;;9.00;99.90;;;;;;4843831;29;20092;-79
2022/01/03 17:15:37;;;;;;;2.13;0.60;;;9.00;99.90;;;;;;4866517;29;20033;-79
2022/01/03 17:18:46;;;;;;;3.75;1.50;;;9.10;99.90;;;;;;4914825;29;20028;-79
2022/01/03 17:21:42;;;;;;;2.03;0.70;;;9.00;99.90;;;;;;4887525;29;20037;-79
2022/01/03 17:27:58;;;;;;;6.28;0.30;;;9.00;99.90;;;;;;4851061;29;20018;-81
2022/01/03 17:31:24;;;;;;;5.15;0.50;;;8.90;99.90;;;;;;4815639;29;20067;-80
2022/01/03 17:33:56;;;;;;;0.90;0.30;;;9.00;99.90;;;;;;4803868;29;20219;-80
2022/01/03 17:36:22;;;;;;;0.90;0.30;;;8.90;99.90;;;;;;4845075;29;20057;-80
2022/01/03 17:49:23;;;;;;;3.05;0.60;;;8.90;99.90;;;;;;4837052;29;20061;-78
2022/01/03 17:51:49;;;;;;;4.00;0.80;;;8.90;99.90;;;;;;4835814;29;20084;-79
2022/01/03 17:54:15;;;;;;;2.80;0.60;;;8.80;99.90;;;;;;4853227;29;21006;-78
2022/01/03 17:56:41;;;;;;;;;;;8.80;99.90;;;;;;4869340;29;20062;-78
2022/01/03 18:02:39;;;;;;;2.78;0.60;;;8.70;99.90;;;;;;4990406;28;20046;-79
2022/01/03 18:08:00;;;;;;;0.75;0.30;;;8.70;99.90;;;;;;4988958;28;20082;-79
2022/01/03 18:10:27;;;;;;;3.25;0.50;;;8.70;99.90;;;;;;4998468;28;20034;-79
2022/01/03 18:12:58;;;;;;;3.08;0.40;;;8.70;99.90;;;;;;4996935;28;20035;-79
2022/01/03 18:15:28;;;;;;;2.15;0.40;;;8.80;99.90;;;;;;4996146;28;20022;-79
2022/01/03 18:18:01;;;;;;;;;;;8.70;99.90;;;;;;5001360;28;20011;-81
2022/01/03 18:20:37;;;;;;;3.40;0.60;;;8.70;99.90;;;;;;4986582;28;19894;-81
2022/01/03 18:23:03;;;;;;;2.75;0.55;;;8.70;99.90;;;;;;5000802;28;20085;-81
2022/01/03 18:25:30;;;;;;;3.70;0.80;;;8.60;99.90;;;;;;4998053;28;20019;-79
2022/01/03 18:27:56;;;;;;;2.88;0.70;;;8.60;99.90;;;;;;4999671;28;20018;-80
2022/01/03 18:30:22;;;;;;;;;;;8.70;99.90;;;;;;5001273;28;20063;-79
2022/01/03 18:32:47;;;;;;;1.45;0.50;;;8.80;99.90;;;;;;4990828;28;19914;-77
2022/01/03 18:35:15;;;;;;;3.05;0.60;;;8.70;99.90;;;;;;4991786;28;20038;-78
2022/01/03 18:37:42;;;;;;;2.60;0.77;;;8.70;99.90;;;;;;4992022;28;20581;-79
2022/01/03 18:40:08;;;;;;;;;;;8.70;99.90;;;;;;4989371;28;20018;-78
2022/01/03 18:42:35;;;;;;;2.05;0.40;;;8.70;99.90;;;;;;4993645;28;19909;-79
2022/01/03 18:45:05;;;;;;;2.30;0.55;;;8.70;99.90;;;;;;4996651;28;20037;-80
2022/01/03 18:51:05;;;;;;;2.00;0.40;;;8.60;99.90;;;;;;4998215;28;20069;-78
2022/01/03 18:53:54;;;;;;;1.58;0.40;;;8.60;99.90;;;;;;5000813;28;20018;-79
2022/01/03 18:56:24;;;;;;;4.25;0.88;;;8.60;99.90;;;;;;4999813;28;20018;-79
2022/01/03 18:58:51;;;;;;;5.70;1.38;;;8.50;99.90;;;;;;5000252;28;20007;-80
2022/01/03 19:01:25;;;;;;;;;;;8.50;99.90;;;;;;4998612;28;20011;-79
2022/01/03 19:03:51;;;;;;;3.47;1.27;;;8.50;99.90;;;;;;4984151;28;19910;-78
2022/01/03 19:06:17;;;;;;;3.42;0.50;;;8.50;99.90;;;;;;4997073;28;20026;-79
2022/01/03 19:08:43;;;;;;;;;;;8.50;99.90;;;;;;4998861;28;20026;-79
2022/01/03 19:11:13;;;;;;;3.75;0.90;;;8.60;99.90;;;;;;4995296;28;19898;-78
2022/01/03 19:13:46;;;;;;;4.35;0.82;;;8.70;99.90;;;;;;4987046;28;20007;-79
2022/01/03 19:16:12;;;;;;;2.85;1.08;;;8.70;99.90;;;;;;4992440;28;20054;-78
2022/01/03 19:18:41;;;;;;;1.83;0.50;;;8.80;99.90;;;;;;4990103;28;20075;-79
2022/01/03 19:21:08;;;;;;;2.03;0.60;;;8.70;99.90;;;;;;4996340;28;20030;-79
2022/01/03 19:23:40;;;;;;;4.47;0.70;;;8.80;99.90;;;;;;4998475;28;20042;-79
2022/01/03 19:26:12;;;;;;;2.13;0.50;;;8.90;99.90;;;;;;4999409;28;20016;-79
2022/01/03 19:28:43;;;;;;;1.98;0.60;;;8.90;99.90;;;;;;4997310;28;20031;-79
2022/01/03 19:40:08;;;;;;;3.03;1.00;;;8.80;99.90;;;;;;4963425;28;20030;-79
2022/01/03 19:49:32;;;;;;;3.17;1.10;;;8.60;99.90;;;;;;5073728;23;20126;-79
2022/01/03 19:52:00;;;;;;;5.50;1.15;;;8.50;99.90;;;;;;4996524;28;20115;-78
2022/01/03 19:54:26;;;;;;;3.78;1.08;;;8.40;99.90;;;;;;4995983;28;20011;-79
2022/01/03 19:57:07;;;;;;;;;;;8.20;99.90;;;;;;4999704;28;20022;-79
2022/01/03 19:59:44;;;;;;;5.72;0.95;;;8.20;99.90;;;;;;4987441;28;19954;-81
2022/01/03 20:02:11;;;;;;;2.90;0.95;;;8.10;99.90;;;;;;5000007;28;20037;-80
2022/01/03 20:04:36;;;;;;;;;;;8.10;99.90;;;;;;4996719;28;20038;-80
2022/01/03 20:07:04;;;;;;;12.00;4.93;;;8.10;99.90;;;;;;5012920;28;19946;-79
2022/01/03 20:09:39;;;;;;;11.75;5.07;;;8.00;99.90;;;;;;4996264;28;20027;-79
2022/01/03 20:12:06;;;;;;;12.13;6.68;;;7.90;99.90;;;;;;4981006;28;20027;-79
2022/01/03 20:14:33;;;;;;;21.80;10.85;;;7.70;99.90;;;;;;4994602;28;20030;-79
2022/01/03 20:17:15;;;;;;;18.55;10.02;;;7.60;99.90;;;;;;4995744;28;20009;-78
2022/01/03 20:19:42;;;;;;;24.15;12.00;;;7.50;99.90;;;;;;4997241;28;20015;-79
2022/01/03 20:22:08;;;;;;;11.18;5.57;;;7.40;99.90;;;;;;4998135;28;20023;-79
2022/01/03 20:24:37;;;;;;;16.00;5.65;;;7.40;99.90;;;;;;4998384;28;20014;-80
2022/01/03 20:27:04;;;;;;;12.93;4.68;;;7.30;99.90;;;;;;4998116;28;20074;-79
2022/01/03 20:29:30;;;;;;;22.83;11.55;;;7.30;99.90;;;;;;4996392;28;20033;-80
2022/01/03 20:31:56;;;;;;;16.38;7.75;;;7.40;99.90;;;;;;4995919;28;20090;-79
2022/01/03 20:34:22;;;;;;;;;;;7.30;99.90;;;;;;4992373;28;20031;-78
2022/01/03 20:36:48;;;;;;;19.80;8.95;;;7.30;99.90;;;;;;4989798;28;19925;-79
2022/01/03 20:39:16;;;;;;;16.10;8.43;;;7.10;99.90;;;;;;4998828;28;20050;-80
2022/01/03 20:41:44;;;;;;;15.93;7.97;;;7.20;99.90;;;;;;4999315;28;20019;-81
2022/01/03 20:44:13;;;;;;;10.25;5.47;;;7.10;99.90;;;;;;4998771;28;20104;-80
2022/01/03 20:46:39;;;;;;;9.23;3.97;;;7.00;99.90;;;;;;4998985;28;20035;-79
2022/01/03 20:49:06;;;;;;;;;;;7.00;99.90;;;;;;4982456;28;20042;-78
2022/01/03 20:51:31;;;;;;;17.80;4.45;;;6.90;99.90;;;;;;4993377;28;19902;-79
2022/01/03 20:53:57;;;;;;;;;;;6.90;99.90;;;;;;4999516;28;20015;-79
2022/01/03 20:56:26;;;;;;;9.52;4.28;;;7.00;99.90;;;;;;4989961;28;19953;-78
2022/01/03 20:58:52;;;;;;;11.20;4.80;;;6.90;99.90;;;;;;4995838;28;20034;-79
2022/01/03 21:01:18;;;;;;;;;;;6.90;99.90;;;;;;4997025;28;20089;-78
2022/01/03 21:03:53;;;;;;;28.27;10.93;;;6.90;99.90;;;;;;5019257;28;19894;-81
2022/01/03 21:06:37;;;;;;;17.67;8.82;;;7.00;99.90;;;;;;5002966;28;20187;-82
2022/01/03 21:10:21;;;;;;;13.32;5.88;;;6.90;99.90;;;;;;4963929;29;20060;-81
2022/01/03 21:17:52;;;;;;;3.80;0.68;;;6.90;99.90;;;;;;5533084;23;20058;-78
2022/01/03 21:20:59;;;;;;;;;;;7.10;99.90;;;;;;5019343;28;20056;-79
2022/01/03 21:23:34;;;;;;;5.55;1.00;;;7.20;99.90;;;;;;4995745;28;19913;-78
2022/01/03 21:32:41;;;;;;;2.92;0.50;;;7.40;99.90;;;;;;5042367;28;20053;-80
2022/01/03 21:36:23;;;;;;;4.63;1.20;;;7.50;99.90;;;;;;4877540;29;20118;-80
2022/01/03 21:39:31;;;;;;;6.13;2.55;;;7.50;99.90;;;;;;4873245;29;20026;-80
2022/01/03 21:42:19;;;;;;;4.80;1.38;;;7.50;99.90;;;;;;4881303;29;20018;-81
2022/01/03 21:44:45;;;;;;;8.98;4.47;;;7.60;99.90;;;;;;4884517;29;20075;-79
2022/01/03 21:47:11;;;;;;;;;;;7.50;99.90;;;;;;5001198;28;20024;-79
2022/01/03 21:49:39;;;;;;;9.43;3.90;;;7.40;99.90;;;;;;5019686;28;19964;-79
2022/01/03 21:52:25;;;;;;;24.60;10.25;;;7.40;99.90;;;;;;5023206;28;20037;-81
2022/01/03 21:55:11;;;;;;;19.42;7.38;;;7.30;99.90;;;;;;4975646;28;20027;-79
2022/01/03 22:01:31;;;;;;;10.45;3.90;;;7.00;99.90;;;;;;5018570;28;19920;-80
2022/01/03 22:07:31;;;;;;;11.40;5.03;;;6.70;99.90;;;;;;5041254;28;20029;-80
2022/01/03 22:10:00;;;;;;;11.70;5.43;;;6.70;99.90;;;;;;5023554;28;20048;-81
2022/01/03 22:12:45;;;;;;;13.70;5.60;;;6.60;99.90;;;;;;5023188;28;20048;-78
2022/01/03 22:15:16;;;;;;;21.42;7.70;;;6.60;99.90;;;;;;5036753;28;20018;-80
2022/01/03 22:17:43;;;;;;;12.55;4.90;;;6.50;99.90;;;;;;5039546;28;20061;-79
2022/01/03 22:20:14;;;;;;;11.85;5.05;;;6.50;99.90;;;;;;5021606;28;20049;-80
2022/01/03 22:22:40;;;;;;;12.10;4.22;;;6.40;99.90;;;;;;5019642;28;20060;-78
2022/01/03 22:25:06;;;;;;;;;;;6.40;99.90;;;;;;5022867;28;20033;-80
2022/01/03 22:27:37;;;;;;;13.18;4.03;;;6.40;99.90;;;;;;5023557;28;19893;-80
2022/01/03 22:30:15;;;;;;;16.48;5.47;;;6.40;99.90;;;;;;5040414;28;20034;-80
2022/01/03 22:33:05;;;;;;;16.13;5.35;;;6.30;99.90;;;;;;4981283;28;20090;-80
2022/01/03 22:39:38;;;;;;;11.10;3.80;;;6.40;99.90;;;;;;4981802;28;20047;-79
2022/01/03 22:56:27;;;;;;;8.55;3.28;;;6.40;99.90;;;;;;4887590;29;20034;-80
2022/01/03 23:03:37;;;;;;;8.35;2.85;;;6.50;99.90;;;;;;4763523;30;20024;-80
2022/01/03 23:07:06;;;;;;;8.18;2.30;;;6.60;99.90;;;;;;4759180;30;20079;-80
2022/01/03 23:42:07;;;;;;;7.30;1.70;;;7.10;99.90;;;;;;4903680;29;20044;-79
2022/01/03 23:44:34;;;;;;;5.35;1.63;;;7.10;99.90;;;;;;4942045;28;20159;-79
2022/01/03 23:47:01;;;;;;;19.98;8.75;;;7.10;99.90;;;;;;4994320;28;20064;-80
2022/01/03 23:49:27;;;;;;;23.42;10.38;;;7.10;99.90;;;;;;5022496;28;20032;-80
